createdAt,value
2023-03-27T00:01:11.888Z,98783.00
2023-03-27T00:02:43.833Z,98784.72
2023-03-27T00:04:18.340Z,98789.09
2023-03-27T00:06:00.279Z,98788.25
2023-03-27T00:07:32.009Z,98790.09
2023-03-27T00:09:05.048Z,98788.81
2023-03-27T00:10:38.379Z,98788.81
2023-03-27T00:12:10.154Z,98797.69
2023-03-27T00:13:49.388Z,98787.97
2023-03-27T00:15:22.847Z,98794.19
2023-03-27T00:16:54.758Z,98787.97
2023-03-27T00:18:28.388Z,98792.50
2023-03-27T00:20:00.227Z,98792.50
2023-03-27T00:21:32.012Z,98789.09
2023-03-27T00:23:04.671Z,98794.31
2023-03-27T00:24:36.956Z,98789.94
2023-03-27T00:26:08.745Z,98795.28
2023-03-27T00:27:40.535Z,98798.13
2023-03-27T00:29:13.576Z,98806.13
2023-03-27T00:30:45.523Z,98807.09
2023-03-27T00:32:17.324Z,98802.63
2023-03-27T00:33:49.091Z,98808.09
2023-03-27T00:35:21.706Z,98817.94
2023-03-27T00:36:53.909Z,98843.13
2023-03-27T00:38:25.755Z,98835.13
2023-03-27T00:39:57.551Z,98836.38
2023-03-27T00:41:29.438Z,98836.06
2023-03-27T00:43:01.513Z,98841.09
2023-03-27T00:44:34.675Z,98838.22
2023-03-27T00:46:27.961Z,98858.97
2023-03-27T00:48:03.698Z,98854.69
2023-03-27T00:49:37.629Z,98855.47
2023-03-27T00:51:09.799Z,98869.69
2023-03-27T00:52:44.742Z,98863.69
2023-03-27T00:54:22.089Z,98868.47
2023-03-27T00:55:58.091Z,98874.91
2023-03-27T00:57:30.808Z,98858.81
2023-03-27T00:59:10.503Z,98877.78
2023-03-27T01:00:42.364Z,98890.16
2023-03-27T01:02:15.974Z,98890.19
2023-03-27T01:03:50.247Z,98905.44
2023-03-27T01:05:22.363Z,98905.69
2023-03-27T01:06:56.359Z,98899.63
2023-03-27T01:08:33.246Z,98909.53
2023-03-27T01:10:07.748Z,98915.59
2023-03-27T01:11:59.734Z,98914.31
2023-03-27T01:13:53.233Z,98923.13
2023-03-27T01:15:46.633Z,98915.09
2023-03-27T01:17:38.082Z,98927.28
2023-03-27T01:19:39.213Z,98932.66
2023-03-27T01:21:48.196Z,98929.19
2023-03-27T01:23:59.542Z,98939.31
2023-03-27T01:25:55.320Z,98936.41
2023-03-27T01:27:44.426Z,98953.66
2023-03-27T01:29:36.765Z,98954.94
2023-03-27T01:31:41.027Z,98968.28
2023-03-27T01:33:12.738Z,98975.84
2023-03-27T01:35:08.140Z,98968.63
2023-03-27T01:36:59.253Z,98982.25
2023-03-27T01:39:05.544Z,98985.75
2023-03-27T01:40:52.054Z,98985.41
2023-03-27T01:42:33.601Z,98989.47
2023-03-27T01:44:10.800Z,98995.31
2023-03-27T01:45:54.414Z,98992.22
2023-03-27T01:47:58.632Z,98994.31
2023-03-27T01:49:56.156Z,99004.22
2023-03-27T01:51:30.544Z,99005.16
2023-03-27T01:53:07.583Z,99007.94
2023-03-27T01:54:43.880Z,99011.56
2023-03-27T01:56:26.418Z,99019.63
2023-03-27T01:58:14.125Z,99033.09
2023-03-27T01:59:51.908Z,99028.56
2023-03-27T02:01:29.972Z,99025.97
2023-03-27T02:03:20.025Z,99029.69
2023-03-27T02:04:57.568Z,99038.41
2023-03-27T02:06:35.125Z,99035.00
2023-03-27T02:08:26.448Z,99038.63
2023-03-27T02:10:10.530Z,99032.47
2023-03-27T02:11:53.680Z,99044.13
2023-03-27T02:13:32.768Z,99044.91
2023-03-27T02:15:33.419Z,99050.41
2023-03-27T02:17:13.088Z,99061.69
2023-03-27T02:18:52.491Z,99062.53
2023-03-27T02:20:24.377Z,99063.38
2023-03-27T02:21:56.190Z,99064.22
2023-03-27T02:23:31.101Z,99071.28
2023-03-27T02:25:02.993Z,99073.16
2023-03-27T02:26:36.510Z,99072.31
2023-03-27T02:28:20.259Z,99079.44
2023-03-27T02:30:14.142Z,99084.00
2023-03-27T02:32:05.276Z,99079.44
2023-03-27T02:34:13.308Z,99087.63
2023-03-27T02:36:03.695Z,99093.97
2023-03-27T02:37:57.021Z,99095.69
2023-03-27T02:39:59.503Z,99096.84
2023-03-27T02:41:45.329Z,99112.88
2023-03-27T02:44:01.945Z,99110.31
2023-03-27T02:46:20.957Z,99118.41
2023-03-27T02:47:59.437Z,99122.00
2023-03-27T02:49:40.678Z,99127.53
2023-03-27T02:51:24.960Z,99132.84
2023-03-27T02:53:01.320Z,99136.44
2023-03-27T02:54:39.683Z,99140.88
2023-03-27T02:56:15.080Z,99146.13
2023-03-27T02:57:52.016Z,99153.22
2023-03-27T02:59:42.656Z,99154.28
2023-03-27T03:01:18.089Z,99161.94
2023-03-27T03:03:20.293Z,99162.16
2023-03-27T03:05:11.122Z,99167.38
2023-03-27T03:06:44.673Z,99161.09
2023-03-27T03:08:16.626Z,99178.00
2023-03-27T03:09:48.501Z,99172.69
2023-03-27T03:11:21.908Z,99170.03
2023-03-27T03:12:53.678Z,99176.09
2023-03-27T03:14:31.980Z,99183.22
2023-03-27T03:16:04.781Z,99185.75
2023-03-27T03:17:37.052Z,99187.47
2023-03-27T03:19:09.132Z,99189.19
2023-03-27T03:20:41.415Z,99186.44
2023-03-27T03:22:13.405Z,99193.44
2023-03-27T03:23:58.172Z,99203.03
2023-03-27T03:25:31.676Z,99204.63
2023-03-27T03:27:04.605Z,99213.47
2023-03-27T03:29:00.640Z,99215.06
2023-03-27T03:30:35.398Z,99226.47
2023-03-27T03:32:11.951Z,99220.19
2023-03-27T03:33:44.946Z,99226.16
2023-03-27T03:35:16.923Z,99226.06
2023-03-27T03:36:55.377Z,99233.09
2023-03-27T03:38:37.815Z,99234.81
2023-03-27T03:40:13.944Z,99247.16
2023-03-27T03:41:50.908Z,99240.97
2023-03-27T03:43:25.991Z,99243.53
2023-03-27T03:44:59.144Z,99255.00
2023-03-27T03:46:31.399Z,99255.88
2023-03-27T03:48:04.739Z,99263.75
2023-03-27T03:49:36.789Z,99273.44
2023-03-27T03:51:08.581Z,99270.78
2023-03-27T03:52:40.976Z,99277.91
2023-03-27T03:54:12.815Z,99271.63
2023-03-27T03:55:51.522Z,99282.25
2023-03-27T03:57:23.405Z,99283.13
2023-03-27T03:59:09.244Z,99287.56
2023-03-27T04:00:41.813Z,99293.84
2023-03-27T04:02:28.700Z,99285.88
2023-03-27T04:04:08.578Z,99298.19
2023-03-27T04:06:07.801Z,99300.97
2023-03-27T04:07:41.303Z,99301.94
2023-03-27T04:09:31.688Z,99309.13
2023-03-27T04:11:15.435Z,99317.09
2023-03-27T04:12:58.671Z,99316.25
2023-03-27T04:14:41.179Z,99315.41
2023-03-27T04:16:29.803Z,99319.88
2023-03-27T04:18:08.407Z,99332.22
2023-03-27T04:19:42.529Z,99336.56
2023-03-27T04:21:18.264Z,99335.72
2023-03-27T04:22:53.170Z,99346.34
2023-03-27T04:24:26.139Z,99351.66
2023-03-27T04:26:02.223Z,99346.34
2023-03-27T04:27:52.570Z,99354.31
2023-03-27T04:29:32.092Z,99355.16
2023-03-27T04:31:06.872Z,99354.31
2023-03-27T04:33:00.150Z,99356.88
2023-03-27T04:34:44.578Z,99356.03
2023-03-27T04:36:42.743Z,99355.16
2023-03-27T04:38:19.944Z,99361.44
2023-03-27T04:39:56.788Z,99370.28
2023-03-27T04:41:29.864Z,99375.59
2023-03-27T04:43:02.160Z,99373.88
2023-03-27T04:44:37.912Z,99383.66
2023-03-27T04:46:10.102Z,99385.44
2023-03-27T04:47:42.884Z,99386.31
2023-03-27T04:49:16.382Z,99393.41
2023-03-27T04:51:03.340Z,99396.09
2023-03-27T04:52:38.923Z,99395.22
2023-03-27T04:54:11.403Z,99404.06
2023-03-27T04:55:51.383Z,99404.94
2023-03-27T04:57:27.001Z,99409.38
2023-03-27T04:59:03.699Z,99414.69
2023-03-27T05:00:36.564Z,99422.66
2023-03-27T05:02:31.352Z,99419.16
2023-03-27T05:04:17.746Z,99420.97
2023-03-27T05:06:14.042Z,99426.28
2023-03-27T05:07:47.396Z,99429.78
2023-03-27T05:09:24.416Z,99433.47
2023-03-27T05:10:56.918Z,99433.59
2023-03-27T05:12:28.962Z,99439.75
2023-03-27T05:14:05.087Z,99442.50
2023-03-27T05:15:39.319Z,99446.94
2023-03-27T05:17:13.650Z,99448.75
2023-03-27T05:18:48.518Z,99462.03
2023-03-27T05:20:22.089Z,99452.38
2023-03-27T05:21:54.480Z,99462.91
2023-03-27T05:23:26.870Z,99470.13
2023-03-27T05:24:59.016Z,99464.81
2023-03-27T05:26:33.024Z,99475.44
2023-03-27T05:28:05.173Z,99476.28
2023-03-27T05:29:46.741Z,99478.09
2023-03-27T05:31:20.518Z,99469.16
2023-03-27T05:33:24.662Z,99480.56
2023-03-27T05:35:00.211Z,99485.88
2023-03-27T05:36:33.217Z,99483.13
2023-03-27T05:38:06.720Z,99488.44
2023-03-27T05:39:41.551Z,99482.28
2023-03-27T05:41:16.341Z,99497.19
2023-03-27T05:42:52.660Z,99491.09
2023-03-27T05:44:25.782Z,99502.59
2023-03-27T05:45:57.684Z,99495.38
2023-03-27T05:47:29.806Z,99499.75
2023-03-27T05:49:02.669Z,99504.13
2023-03-27T05:50:35.261Z,99508.50
2023-03-27T05:52:09.745Z,99507.66
2023-03-27T05:53:41.797Z,99514.66
2023-03-27T05:55:23.253Z,99517.44
2023-03-27T05:56:55.081Z,99522.56
2023-03-27T05:58:27.235Z,99529.59
2023-03-27T06:00:02.078Z,99529.59
2023-03-27T06:01:36.250Z,99529.59
2023-03-27T06:03:08.563Z,99520.66
2023-03-27T06:05:02.389Z,99534.63
2023-03-27T06:06:42.025Z,99540.13
2023-03-27T06:08:13.812Z,99539.19
2023-03-27T06:09:46.928Z,99534.63
2023-03-27T06:11:36.897Z,99540.72
2023-03-27T06:13:12.995Z,99549.53
2023-03-27T06:14:55.365Z,99553.91
2023-03-27T06:16:38.640Z,99560.84
2023-03-27T06:18:29.332Z,99556.38
2023-03-27T06:20:02.295Z,99562.75
2023-03-27T06:21:38.064Z,99567.03
2023-03-27T06:23:12.103Z,99575.88
2023-03-27T06:24:45.044Z,99568.66
2023-03-27T06:26:19.650Z,99574.94
2023-03-27T06:27:51.777Z,99571.22
2023-03-27T06:29:24.967Z,99574.81
2023-03-27T06:30:58.018Z,99585.09
2023-03-27T06:32:36.634Z,99586.84
2023-03-27T06:34:15.737Z,99589.28
2023-03-27T06:35:53.632Z,99587.50
2023-03-27T06:37:37.114Z,99598.03
2023-03-27T06:39:09.555Z,99588.19
2023-03-27T06:40:41.793Z,99593.50
2023-03-27T06:42:14.876Z,99596.81
2023-03-27T06:43:56.137Z,99594.06
2023-03-27T06:45:50.227Z,99606.34
2023-03-27T06:48:15.427Z,99599.19
2023-03-27T06:49:52.127Z,99610.63
2023-03-27T06:51:27.791Z,99611.56
2023-03-27T06:52:59.995Z,99613.34
2023-03-27T06:54:57.615Z,99620.75
2023-03-27T06:56:29.483Z,99621.63
2023-03-27T06:58:22.058Z,99634.91
2023-03-27T06:59:54.149Z,99629.59
2023-03-27T07:01:30.438Z,99633.22
2023-03-27T07:03:23.077Z,99635.88
2023-03-27T07:05:14.695Z,99641.19
2023-03-27T07:06:49.091Z,99643.00
2023-03-27T07:08:24.840Z,99652.69
2023-03-27T07:09:59.520Z,99642.22
2023-03-27T07:11:32.270Z,99654.50
2023-03-27T07:13:08.768Z,99644.88
2023-03-27T07:14:41.097Z,99652.88
2023-03-27T07:16:13.330Z,99650.28
2023-03-27T07:17:52.525Z,99662.81
2023-03-27T07:19:24.418Z,99658.44
2023-03-27T07:21:05.528Z,99665.66
2023-03-27T07:22:37.983Z,99664.03
2023-03-27T07:24:13.869Z,99671.16
2023-03-27T07:25:46.010Z,99666.88
2023-03-27T07:27:27.146Z,99672.28
2023-03-27T07:29:06.227Z,99677.94
2023-03-27T07:30:38.941Z,99680.50
2023-03-27T07:32:12.160Z,99677.94
2023-03-27T07:33:49.577Z,99679.75
2023-03-27T07:35:23.011Z,99674.78
2023-03-27T07:37:14.710Z,99686.09
2023-03-27T07:39:05.450Z,99687.06
2023-03-27T07:40:40.506Z,99696.81
2023-03-27T07:42:29.802Z,99694.06
2023-03-27T07:44:06.973Z,99691.41
2023-03-27T07:45:50.112Z,99692.25
2023-03-27T07:47:22.179Z,99699.22
2023-03-27T07:48:55.751Z,99697.41
2023-03-27T07:50:30.153Z,99701.78
2023-03-27T07:52:02.187Z,99700.94
2023-03-27T07:53:37.768Z,99700.84
2023-03-27T07:55:29.827Z,99698.25
2023-03-27T07:57:07.630Z,99702.91
2023-03-27T07:59:00.563Z,99707.88
2023-03-27T08:00:35.619Z,99713.09
2023-03-27T08:02:16.193Z,99712.25
2023-03-27T08:03:49.224Z,99719.03
2023-03-27T08:05:23.107Z,99706.13
2023-03-27T08:07:10.276Z,99714.72
2023-03-27T08:08:43.118Z,99717.81
2023-03-27T08:10:16.261Z,99720.19
2023-03-27T08:12:00.235Z,99713.31
2023-03-27T08:13:32.842Z,99720.91
2023-03-27T08:15:09.786Z,99717.66
2023-03-27T08:16:41.897Z,99717.97
2023-03-27T08:18:14.353Z,99721.97
2023-03-27T08:19:46.637Z,99725.78
2023-03-27T08:21:19.509Z,99728.88
2023-03-27T08:22:54.603Z,99729.34
2023-03-27T08:24:36.353Z,99723.06
2023-03-27T08:26:14.791Z,99735.34
2023-03-27T08:27:53.320Z,99734.09
2023-03-27T08:29:25.826Z,99747.41
2023-03-27T08:31:02.426Z,99750.06
2023-03-27T08:32:39.926Z,99743.03
2023-03-27T08:34:14.190Z,99747.53
2023-03-27T08:35:51.403Z,99752.06
2023-03-27T08:37:24.919Z,99747.63
2023-03-27T08:39:15.062Z,99752.66
2023-03-27T08:41:01.683Z,99756.81
2023-03-27T08:42:44.223Z,99753.66
2023-03-27T08:44:20.894Z,99748.81
2023-03-27T08:46:05.837Z,99745.13
2023-03-27T08:47:46.443Z,99748.91
2023-03-27T08:49:27.610Z,99750.53
2023-03-27T08:51:37.395Z,99748.44
2023-03-27T08:53:29.515Z,99758.91
2023-03-27T08:55:18.996Z,99746.94
2023-03-27T08:57:01.495Z,99748.25
2023-03-27T08:58:34.729Z,99752.13
2023-03-27T09:00:40.654Z,99753.47
2023-03-27T09:02:45.105Z,99747.84
2023-03-27T09:04:25.178Z,99750.59
2023-03-27T09:06:08.580Z,99756.38
2023-03-27T09:07:55.642Z,99756.72
2023-03-27T09:09:59.707Z,99755.59
2023-03-27T09:11:43.093Z,99757.56
2023-03-27T09:13:24.306Z,99759.91
2023-03-27T09:15:09.925Z,99753.22
2023-03-27T09:16:49.748Z,99763.19
2023-03-27T09:18:43.435Z,99756.19
2023-03-27T09:20:29.916Z,99767.31
2023-03-27T09:22:12.074Z,99766.16
2023-03-27T09:24:08.547Z,99765.75
2023-03-27T09:26:28.310Z,99766.63
2023-03-27T09:28:20.977Z,99756.28
2023-03-27T09:30:15.153Z,99757.16
2023-03-27T09:31:56.475Z,99767.84
2023-03-27T09:33:29.522Z,99771.06
2023-03-27T09:35:01.375Z,99780.50
2023-03-27T09:36:36.020Z,99780.59
2023-03-27T09:38:23.134Z,99774.06
2023-03-27T09:39:55.402Z,99783.69
2023-03-27T09:42:11.349Z,99782.69
2023-03-27T09:44:09.448Z,99778.84
2023-03-27T09:45:45.166Z,99786.72
2023-03-27T09:47:23.259Z,99792.66
2023-03-27T09:49:07.114Z,99795.38
2023-03-27T09:50:47.500Z,99797.16
2023-03-27T09:53:08.314Z,99794.81
2023-03-27T09:55:00.479Z,99799.28
2023-03-27T09:56:44.449Z,99806.22
2023-03-27T09:58:30.171Z,99796.72
2023-03-27T10:00:14.892Z,99798.34
2023-03-27T10:01:49.267Z,99803.91
2023-03-27T10:03:23.482Z,99800.75
2023-03-27T10:05:02.701Z,99788.13
2023-03-27T10:06:59.624Z,99796.09
2023-03-27T10:08:46.647Z,99798.59
2023-03-27T10:10:25.158Z,99792.72
2023-03-27T10:12:21.437Z,99785.66
2023-03-27T10:13:55.514Z,99791.25
2023-03-27T10:15:37.211Z,99794.31
2023-03-27T10:17:29.545Z,99796.22
2023-03-27T10:19:21.140Z,99806.78
2023-03-27T10:20:56.815Z,99809.06
2023-03-27T10:22:34.060Z,99809.13
2023-03-27T10:24:26.431Z,99816.94
2023-03-27T10:26:18.054Z,99807.22
2023-03-27T10:27:54.345Z,99810.38
2023-03-27T10:29:41.111Z,99815.50
2023-03-27T10:31:40.260Z,99828.44
2023-03-27T10:33:29.282Z,99819.63
2023-03-27T10:37:29.832Z,99818.63
2023-03-27T10:39:35.935Z,99820.78
2023-03-27T10:41:28.528Z,99833.56
2023-03-27T10:43:17.011Z,99845.41
2023-03-27T10:44:54.656Z,99841.84
2023-03-27T10:46:30.714Z,99844.66
2023-03-27T10:48:16.365Z,99837.81
2023-03-27T10:50:03.998Z,99840.72
2023-03-27T10:51:51.087Z,99837.59
2023-03-27T10:53:41.161Z,99840.31
2023-03-27T10:55:21.982Z,99843.91
2023-03-27T10:57:02.722Z,99852.59
2023-03-27T10:58:47.404Z,99851.41
2023-03-27T11:00:32.867Z,99851.94
2023-03-27T11:02:15.480Z,99844.28
2023-03-27T11:03:54.042Z,99844.41
2023-03-27T11:05:37.419Z,99857.13
2023-03-27T11:07:21.202Z,99844.97
2023-03-27T11:09:05.931Z,99841.75
2023-03-27T11:10:47.190Z,99849.09
2023-03-27T11:12:30.833Z,99844.69
2023-03-27T11:14:10.216Z,99857.38
2023-03-27T11:16:04.521Z,99858.13
2023-03-27T11:18:10.579Z,99852.38
2023-03-27T11:19:54.817Z,99866.78
2023-03-27T11:21:40.360Z,99852.25
2023-03-27T11:23:38.677Z,99854.38
2023-03-27T11:25:45.140Z,99864.63
2023-03-27T11:27:54.042Z,99859.19
2023-03-27T11:29:35.959Z,99865.59
2023-03-27T11:31:16.146Z,99871.34
2023-03-27T11:33:32.687Z,99865.31
2023-03-27T11:35:21.639Z,99873.34
2023-03-27T11:37:16.977Z,99870.66
2023-03-27T11:39:02.603Z,99872.59
2023-03-27T11:40:40.562Z,99878.72
2023-03-27T11:42:19.180Z,99884.31
2023-03-27T11:43:53.364Z,99887.13
2023-03-27T11:46:08.249Z,99896.19
2023-03-27T11:47:57.965Z,99887.66
2023-03-27T11:49:43.133Z,99886.84
2023-03-27T11:51:24.571Z,99883.88
2023-03-27T11:53:15.519Z,99881.16
2023-03-27T11:55:25.088Z,99885.25
2023-03-27T11:57:02.915Z,99890.84
2023-03-27T11:59:16.265Z,99892.53
2023-03-27T12:01:10.156Z,99877.22
2023-03-27T12:03:03.679Z,99876.00
2023-03-27T12:04:43.161Z,99875.56
2023-03-27T12:06:51.327Z,99879.09
2023-03-27T12:08:51.742Z,99881.19
2023-03-27T12:10:36.030Z,99885.34
2023-03-27T12:12:45.833Z,99885.88
2023-03-27T12:14:40.985Z,99890.56
2023-03-27T12:16:32.029Z,99889.03
2023-03-27T12:18:32.290Z,99895.50
2023-03-27T12:20:43.519Z,99891.53
2023-03-27T12:22:31.697Z,99889.97
2023-03-27T12:24:21.879Z,99889.97
2023-03-27T12:26:47.571Z,99889.75
2023-03-27T12:29:23.549Z,99894.75
2023-03-27T12:31:33.730Z,99893.78
2023-03-27T12:33:22.369Z,99897.19
2023-03-27T12:34:59.204Z,99897.81
2023-03-27T12:36:41.414Z,99911.75
2023-03-27T12:38:31.686Z,99895.41
2023-03-27T12:40:24.659Z,99893.34
2023-03-27T12:41:56.971Z,99898.09
2023-03-27T12:43:41.354Z,99899.13
2023-03-27T12:45:28.194Z,99902.94
2023-03-27T12:47:25.459Z,99900.75
2023-03-27T12:49:13.766Z,99904.91
2023-03-27T12:50:59.593Z,99888.28
2023-03-27T12:52:35.180Z,99878.53
2023-03-27T12:54:19.435Z,99886.94
2023-03-27T12:56:17.154Z,99873.97
2023-03-27T12:57:52.934Z,99888.38
2023-03-27T12:59:52.735Z,99885.56
2023-03-27T13:03:36.158Z,99922.97
2023-03-27T13:05:36.402Z,99915.38
2023-03-27T13:07:17.893Z,99919.06
2023-03-27T13:09:35.604Z,99922.59
2023-03-27T13:11:49.673Z,99920.84
2023-03-27T13:14:00.998Z,99915.41
2023-03-27T13:15:53.843Z,99917.03
2023-03-27T13:17:52.437Z,99922.47
2023-03-27T13:19:44.939Z,99919.63
2023-03-27T13:21:35.985Z,99922.78
2023-03-27T13:23:25.458Z,99929.69
2023-03-27T13:25:17.625Z,99927.88
2023-03-27T13:27:01.750Z,99916.53
2023-03-27T13:28:38.312Z,99930.78
2023-03-27T13:30:44.572Z,99929.28
2023-03-27T13:33:13.283Z,99931.63
2023-03-27T13:35:09.991Z,99924.09
2023-03-27T13:36:47.751Z,99932.66
2023-03-27T13:38:54.397Z,99939.09
2023-03-27T13:40:29.040Z,99942.31
2023-03-27T13:42:19.841Z,99997.22
2023-03-27T13:43:54.403Z,99978.06
2023-03-27T13:45:46.895Z,99979.72
2023-03-27T13:47:49.977Z,99953.72
2023-03-27T13:49:53.030Z,99960.50
2023-03-27T13:52:07.171Z,99954.41
2023-03-27T13:53:42.472Z,99957.72
2023-03-27T13:55:28.005Z,99970.66
2023-03-27T13:57:50.184Z,99991.38
2023-03-27T14:00:07.390Z,100015.16
2023-03-27T14:02:44.131Z,99996.41
2023-03-27T14:04:46.096Z,99971.25
2023-03-27T14:07:07.973Z,99974.72
2023-03-27T14:08:51.100Z,99962.50
2023-03-27T14:11:07.083Z,99969.38
2023-03-27T14:12:49.517Z,99970.72
2023-03-27T14:15:02.235Z,99980.81
2023-03-27T14:16:54.487Z,99986.16
2023-03-27T14:18:47.096Z,100006.72
2023-03-27T14:20:27.560Z,100021.03
2023-03-27T14:22:05.548Z,100031.09
2023-03-27T14:23:51.978Z,100013.94
2023-03-27T14:25:38.525Z,100019.63
2023-03-27T14:27:32.857Z,100020.97
2023-03-27T14:29:06.001Z,100022.09
2023-03-27T14:30:47.861Z,100024.84
2023-03-27T14:32:43.829Z,100033.91
2023-03-27T14:34:33.298Z,100024.94
2023-03-27T14:36:26.176Z,100018.47
2023-03-27T14:38:05.814Z,100030.69
2023-03-27T14:39:53.503Z,100032.41
2023-03-27T14:41:25.797Z,100026.22
2023-03-27T14:43:02.553Z,100040.22
2023-03-27T14:44:34.811Z,100041.94
2023-03-27T14:46:12.812Z,100039.28
2023-03-27T14:47:49.959Z,100033.94
2023-03-27T14:49:26.774Z,100048.06
2023-03-27T14:51:10.353Z,100046.31
2023-03-27T14:52:44.114Z,100043.56
2023-03-27T14:54:52.192Z,100031.88
2023-03-27T14:56:30.275Z,100034.59
2023-03-27T14:58:18.545Z,100049.69
2023-03-27T14:59:53.295Z,100035.28
2023-03-27T15:01:26.791Z,100035.19
2023-03-27T15:03:06.364Z,100036.91
2023-03-27T15:04:40.509Z,100053.59
2023-03-27T15:06:27.758Z,100056.09
2023-03-27T15:08:13.049Z,100069.06
2023-03-27T15:10:06.200Z,100076.88
2023-03-27T15:12:02.234Z,100070.34
2023-03-27T15:13:37.123Z,100062.22
2023-03-27T15:15:25.053Z,100058.50
2023-03-27T15:17:03.237Z,100062.63
2023-03-27T15:18:53.843Z,100058.81
2023-03-27T15:20:30.596Z,100061.84
2023-03-27T15:22:11.869Z,100059.66
2023-03-27T15:24:11.069Z,100061.03
2023-03-27T15:25:50.102Z,100072.00
2023-03-27T15:27:26.781Z,100060.94
2023-03-27T15:28:58.832Z,100066.00
2023-03-27T15:30:47.850Z,100067.50
2023-03-27T15:32:32.497Z,100060.94
2023-03-27T15:34:23.496Z,100058.06
2023-03-27T15:35:56.699Z,100057.69
2023-03-27T15:37:30.778Z,100057.34
2023-03-27T15:39:04.814Z,100063.34
2023-03-27T15:40:42.414Z,100059.97
2023-03-27T15:42:15.526Z,100067.41
2023-03-27T15:43:47.346Z,100068.63
2023-03-27T15:45:23.785Z,100063.63
2023-03-27T15:46:58.894Z,100070.84
2023-03-27T15:48:38.187Z,100075.69
2023-03-27T15:50:16.023Z,100067.84
2023-03-27T15:51:47.844Z,100067.09
2023-03-27T15:53:37.671Z,100068.41
2023-03-27T15:55:09.770Z,100075.28
2023-03-27T15:56:43.932Z,100077.56
2023-03-27T15:58:43.296Z,100079.19
2023-03-27T16:00:16.844Z,100079.41
2023-03-27T16:01:54.219Z,100078.13
2023-03-27T16:03:27.786Z,100084.13
2023-03-27T16:04:59.785Z,100073.44
2023-03-27T16:06:36.849Z,100080.41
2023-03-27T16:08:09.463Z,100086.47
2023-03-27T16:09:51.162Z,100086.81
2023-03-27T16:11:34.344Z,100083.59
2023-03-27T16:13:21.814Z,100082.63
2023-03-27T16:14:57.437Z,100082.00
2023-03-27T16:16:34.054Z,100080.59
2023-03-27T16:18:31.344Z,100080.44
2023-03-27T16:20:23.969Z,100080.84
2023-03-27T16:21:57.524Z,100086.41
2023-03-27T16:23:29.354Z,100080.72
2023-03-27T16:25:02.907Z,100079.44
2023-03-27T16:26:35.524Z,100094.28
2023-03-27T16:28:09.419Z,100089.53
2023-03-27T16:29:41.408Z,100098.06
2023-03-27T16:31:19.039Z,100095.00
2023-03-27T16:32:51.269Z,100098.00
2023-03-27T16:34:23.736Z,100097.34
2023-03-27T16:35:56.804Z,100108.53
2023-03-27T16:37:29.717Z,100122.19
2023-03-27T16:39:04.326Z,100112.19
2023-03-27T16:40:36.732Z,100114.47
2023-03-27T16:42:16.205Z,100119.72
2023-03-27T16:43:49.284Z,100125.66
2023-03-27T16:45:21.827Z,100119.22
2023-03-27T16:46:53.725Z,100121.63
2023-03-27T16:48:25.747Z,100124.84
2023-03-27T16:50:10.920Z,100127.13
2023-03-27T16:51:43.930Z,100124.16
2023-03-27T16:53:15.775Z,100126.34
2023-03-27T16:54:47.874Z,100135.63
2023-03-27T16:56:20.445Z,100128.09
2023-03-27T16:57:54.224Z,100129.41
2023-03-27T16:59:26.587Z,100135.97
2023-03-27T17:00:58.797Z,100147.94
2023-03-27T17:02:34.153Z,100142.00
2023-03-27T17:04:07.237Z,100140.47
2023-03-27T17:05:39.539Z,100157.50
2023-03-27T17:07:11.489Z,100170.44
2023-03-27T17:08:43.272Z,100183.25
2023-03-27T17:10:16.360Z,100193.66
2023-03-27T17:11:48.764Z,100195.38
2023-03-27T17:13:20.552Z,100195.88
2023-03-27T17:14:52.653Z,100200.22
2023-03-27T17:16:24.710Z,100197.41
2023-03-27T17:17:56.588Z,100204.41
2023-03-27T17:19:28.917Z,100207.91
2023-03-27T17:21:01.900Z,100199.03
2023-03-27T17:22:34.169Z,100210.31
2023-03-27T17:24:06.957Z,100212.13
2023-03-27T17:25:38.761Z,100211.00
2023-03-27T17:27:10.644Z,100214.19
2023-03-27T17:28:42.590Z,100217.50
2023-03-27T17:30:16.148Z,100220.69
2023-03-27T17:31:53.656Z,100230.06
2023-03-27T17:33:27.977Z,100231.34
2023-03-27T17:35:00.365Z,100238.75
2023-03-27T17:36:41.558Z,100257.63
2023-03-27T17:38:15.098Z,100274.69
2023-03-27T17:39:47.530Z,100277.59
2023-03-27T17:41:20.490Z,100262.78
2023-03-27T17:42:52.426Z,100272.69
2023-03-27T17:44:25.130Z,100270.44
2023-03-27T17:45:57.851Z,100281.19
2023-03-27T17:47:29.886Z,100285.13
2023-03-27T17:49:02.255Z,100271.31
2023-03-27T17:50:34.072Z,100269.00
2023-03-27T17:52:08.421Z,100276.41
2023-03-27T17:53:40.722Z,100276.69
2023-03-27T17:55:13.092Z,100268.25
2023-03-27T17:56:44.916Z,100266.75
2023-03-27T17:58:18.927Z,100263.50
2023-03-27T17:59:50.728Z,100262.13
2023-03-27T18:01:24.573Z,100272.03
2023-03-27T18:02:57.128Z,100269.63
2023-03-27T18:04:29.871Z,100271.69
2023-03-27T18:06:04.261Z,100280.69
2023-03-27T18:07:36.528Z,100281.75
2023-03-27T18:09:09.845Z,100276.56
2023-03-27T18:10:48.637Z,100283.84
2023-03-27T18:12:21.331Z,100283.91
2023-03-27T18:13:53.583Z,100288.44
2023-03-27T18:15:26.142Z,100290.31
2023-03-27T18:16:57.991Z,100300.97
2023-03-27T18:18:29.855Z,100300.22
2023-03-27T18:20:01.980Z,100298.53
2023-03-27T18:21:33.789Z,100298.63
2023-03-27T18:23:06.342Z,100292.50
2023-03-27T18:24:38.151Z,100292.63
2023-03-27T18:26:10.544Z,100297.13
2023-03-27T18:27:43.576Z,100304.28
2023-03-27T18:29:15.773Z,100300.03
2023-03-27T18:30:58.394Z,100308.22
2023-03-27T18:32:30.846Z,100306.50
2023-03-27T18:34:03.238Z,100295.19
2023-03-27T18:35:36.618Z,100300.59
2023-03-27T18:37:08.795Z,100300.72
2023-03-27T18:38:41.962Z,100304.41
2023-03-27T18:40:16.016Z,100298.38
2023-03-27T18:41:47.854Z,100306.34
2023-03-27T18:43:19.828Z,100299.44
2023-03-27T18:44:51.990Z,100303.13
2023-03-27T18:46:24.054Z,100301.47
2023-03-27T18:47:56.151Z,100303.28
2023-03-27T18:49:28.422Z,100306.09
2023-03-27T18:51:03.040Z,100299.97
2023-03-27T18:52:34.846Z,100304.44
2023-03-27T18:54:07.086Z,100307.19
2023-03-27T18:55:39.205Z,100298.47
2023-03-27T18:57:12.097Z,100302.94
2023-03-27T18:58:43.935Z,100303.00
2023-03-27T19:00:18.476Z,100302.19
2023-03-27T19:01:50.640Z,100304.09
2023-03-27T19:03:24.408Z,100308.53
2023-03-27T19:04:56.231Z,100306.00
2023-03-27T19:06:28.584Z,100308.66
2023-03-27T19:08:00.423Z,100307.03
2023-03-27T19:09:40.873Z,100302.63
2023-03-27T19:11:14.196Z,100307.13
2023-03-27T19:13:07.548Z,100302.72
2023-03-27T19:15:13.242Z,100305.47
2023-03-27T19:17:23.748Z,100297.66
2023-03-27T19:19:10.041Z,100304.81
2023-03-27T19:21:04.676Z,100310.19
2023-03-27T19:22:47.737Z,100311.16
2023-03-27T19:24:28.512Z,100313.88
2023-03-27T19:26:10.404Z,100312.19
2023-03-27T19:27:45.655Z,100314.78
2023-03-27T19:29:17.472Z,100316.63
2023-03-27T19:30:51.802Z,100312.13
2023-03-27T19:32:24.459Z,100308.63
2023-03-27T19:33:56.334Z,100306.81
2023-03-27T19:35:28.247Z,100315.59
2023-03-27T19:37:09.842Z,100313.81
2023-03-27T19:38:41.722Z,100313.72
2023-03-27T19:40:14.000Z,100314.56
2023-03-27T19:41:45.862Z,100315.44
2023-03-27T19:43:18.986Z,100319.81
2023-03-27T19:44:50.775Z,100317.19
2023-03-27T19:46:24.614Z,100315.31
2023-03-27T19:47:58.251Z,100318.81